Time;durP1;ratioP1;P1;durP2;ratioP2;P2;SDS_P1;SDS_P2;PMS_P1;PMS_P2;Temp;Humidity;BMP_temperature;BMP_pressure;BME280_temperature;BME280_humidity;BME280_pressure;Samples;Min_cycle;Max_cycle;Signal;HPM_P1;HPM_P2
2023/01/31 00:01:25;;;;;;;5.72;2.72;;;5.40;99.90;;;;;;5072804;28;20031;-36
2023/01/31 00:03:54;;;;;;;3.85;2.30;;;5.30;99.90;;;;;;5072710;28;20115;-43
2023/01/31 00:06:25;;;;;;;4.57;2.65;;;5.50;99.90;;;;;;5072096;28;20437;-35
2023/01/31 00:08:52;;;;;;;5.28;2.60;;;5.70;99.90;;;;;;5072343;28;20040;-34
2023/01/31 00:11:20;;;;;;;3.92;2.40;;;5.90;99.90;;;;;;5072347;28;20024;-34
2023/01/31 00:13:45;;;;;;;3.88;2.33;;;6.10;99.90;;;;;;5072791;28;20033;-43
2023/01/31 00:16:13;;;;;;;4.15;2.40;;;6.30;99.90;;;;;;5072329;28;20479;-40
2023/01/31 00:18:39;;;;;;;4.95;2.38;;;6.20;99.90;;;;;;5072132;28;20021;-43
2023/01/31 00:21:10;;;;;;;4.13;2.20;;;6.20;99.90;;;;;;5072153;28;20505;-35
2023/01/31 00:23:36;;;;;;;6.63;2.50;;;6.10;99.90;;;;;;5072355;28;20075;-42
2023/01/31 00:26:12;;;;;;;4.07;1.80;;;6.00;99.90;;;;;;5071614;28;20116;-34
2023/01/31 00:28:39;;;;;;;3.85;2.05;;;5.90;99.90;;;;;;5070606;28;20035;-40
2023/01/31 00:31:05;;;;;;;4.10;2.30;;;5.90;99.90;;;;;;5071996;28;20029;-36
2023/01/31 00:33:31;;;;;;;4.88;2.30;;;5.80;99.90;;;;;;5071798;28;20386;-33
2023/01/31 00:35:57;;;;;;;5.22;2.22;;;5.70;99.90;;;;;;5071604;28;20355;-33
2023/01/31 00:38:22;;;;;;;3.88;2.20;;;5.70;99.90;;;;;;5071709;28;20028;-42
2023/01/31 00:40:57;;;;;;;5.22;2.22;;;5.60;99.90;;;;;;5071803;28;20044;-36
2023/01/31 00:43:22;;;;;;;3.63;2.10;;;5.50;99.90;;;;;;5071945;28;20104;-33
2023/01/31 00:45:48;;;;;;;5.50;2.45;;;5.50;99.90;;;;;;5071486;28;20163;-38
2023/01/31 00:48:14;;;;;;;5.63;2.28;;;5.50;99.90;;;;;;5071485;28;20028;-40
2023/01/31 00:50:40;;;;;;;3.08;2.00;;;5.40;99.90;;;;;;5071577;28;20092;-38
2023/01/31 00:53:05;;;;;;;4.53;2.33;;;5.40;99.90;;;;;;5071733;28;20025;-43
2023/01/31 00:55:31;;;;;;;7.43;2.45;;;5.40;99.90;;;;;;5071468;28;20028;-36
2023/01/31 00:57:57;;;;;;;5.28;2.45;;;5.30;99.90;;;;;;5072140;28;20032;-42
2023/01/31 01:00:22;;;;;;;5.93;2.78;;;5.30;99.90;;;;;;5071438;28;20028;-36
2023/01/31 01:02:48;;;;;;;5.13;2.20;;;5.30;99.90;;;;;;5071299;28;20102;-42
2023/01/31 01:05:14;;;;;;;4.50;2.03;;;5.30;99.90;;;;;;5071570;28;20021;-36
2023/01/31 01:07:40;;;;;;;4.93;2.17;;;5.50;99.90;;;;;;5071172;28;20455;-42
2023/01/31 01:10:07;;;;;;;3.58;2.10;;;5.70;99.90;;;;;;5071309;28;20032;-43
2023/01/31 01:12:32;;;;;;;2.83;2.00;;;5.90;99.90;;;;;;5071335;28;20051;-43
2023/01/31 01:14:58;;;;;;;4.45;2.45;;;6.20;99.90;;;;;;5071388;28;20048;-38
2023/01/31 01:17:24;;;;;;;3.88;2.33;;;6.20;99.90;;;;;;5070810;28;20387;-37
2023/01/31 01:19:49;;;;;;;3.25;2.05;;;6.10;99.90;;;;;;5071252;28;20387;-43
2023/01/31 01:22:15;;;;;;;5.45;2.35;;;6.10;99.90;;;;;;5071306;28;20113;-43
2023/01/31 01:24:42;;;;;;;4.45;2.22;;;6.00;99.90;;;;;;5071307;28;20026;-43
2023/01/31 01:27:08;;;;;;;4.35;2.20;;;5.90;99.90;;;;;;5070994;28;20020;-35
2023/01/31 01:29:34;;;;;;;2.55;1.83;;;5.90;99.90;;;;;;5071136;28;20024;-38
2023/01/31 01:32:00;;;;;;;5.63;2.35;;;5.80;99.90;;;;;;5070992;28;20047;-38
2023/01/31 01:34:25;;;;;;;4.70;2.63;;;5.70;99.90;;;;;;5071098;28;20486;-43
2023/01/31 01:36:51;;;;;;;4.50;2.60;;;5.60;99.90;;;;;;5071579;28;20028;-35
2023/01/31 01:39:17;;;;;;;5.30;2.10;;;5.60;99.90;;;;;;5074243;28;20021;-40
2023/01/31 01:41:43;;;;;;;8.05;2.45;;;5.50;99.90;;;;;;5075222;28;20032;-40
2023/01/31 01:44:46;;;;;;;5.45;2.40;;;5.50;99.90;;;;;;5075492;28;20070;-41
2023/01/31 01:47:29;;;;;;;3.58;2.15;;;5.40;99.90;;;;;;5074808;28;20031;-37
2023/01/31 01:50:12;;;;;;;5.10;2.22;;;5.40;99.90;;;;;;5075074;28;20034;-42
2023/01/31 01:52:52;;;;;;;3.88;2.30;;;5.30;99.90;;;;;;5074938;28;20035;-38
2023/01/31 01:55:20;;;;;;;6.05;2.20;;;5.30;99.90;;;;;;5075073;28;20032;-43
2023/01/31 01:57:50;;;;;;;6.50;2.33;;;5.30;99.90;;;;;;5074603;28;20494;-36
2023/01/31 02:00:23;;;;;;;5.47;2.40;;;5.30;99.90;;;;;;5074802;28;20042;-42
2023/01/31 02:02:53;;;;;;;4.13;2.55;;;5.20;99.90;;;;;;5074874;28;20031;-33
2023/01/31 02:05:52;;;;;;;4.82;2.03;;;5.30;99.90;;;;;;5074568;28;20017;-36
2023/01/31 02:08:20;;;;;;;3.78;2.08;;;5.50;99.90;;;;;;5073958;28;20033;-40
2023/01/31 02:10:55;;;;;;;3.63;2.20;;;5.70;99.90;;;;;;5074495;28;20382;-42
2023/01/31 02:13:21;;;;;;;3.83;2.17;;;6.00;99.90;;;;;;5074643;28;20017;-43
2023/01/31 02:15:47;;;;;;;3.80;2.20;;;6.20;99.90;;;;;;5074207;28;20060;-39
2023/01/31 02:18:14;;;;;;;4.72;2.20;;;6.20;99.90;;;;;;5075138;28;20386;-37
2023/01/31 02:21:01;;;;;;;4.82;2.20;;;6.20;99.90;;;;;;5074592;28;20071;-42
2023/01/31 02:24:05;;;;;;;4.35;1.95;;;6.10;99.90;;;;;;5074493;28;20031;-33
2023/01/31 02:27:14;;;;;;;4.63;2.10;;;6.00;99.90;;;;;;5074109;28;20021;-35
2023/01/31 02:29:48;;;;;;;3.85;2.35;;;6.00;99.90;;;;;;5074277;28;20028;-39
2023/01/31 02:32:13;;;;;;;;;;;5.80;99.90;;;;;;5074541;28;20026;-38
2023/01/31 02:35:17;;;;;;;4.28;2.20;;;5.80;99.90;;;;;;5074401;28;19914;-44
2023/01/31 02:38:15;;;;;;;3.92;2.00;;;5.70;99.90;;;;;;5072632;28;20086;-43
2023/01/31 02:41:05;;;;;;;5.60;2.10;;;5.60;99.90;;;;;;5073923;28;20502;-39
2023/01/31 02:44:58;;;;;;;4.25;1.92;;;5.50;99.90;;;;;;5074052;28;20016;-43
2023/01/31 02:46:43;;;;;;;6.50;2.03;;;5.50;99.90;;;;;;5073544;28;20115;-33
2023/01/31 02:49:36;;;;;;;3.58;1.92;;;5.40;99.90;;;;;;5072858;28;20548;-42
2023/01/31 02:52:23;;;;;;;3.88;2.10;;;5.40;99.90;;;;;;5073917;28;20035;-42
2023/01/31 02:57:36;;;;;;;4.63;1.90;;;5.30;99.90;;;;;;5074159;28;20097;-41
2023/01/31 03:00:03;;;;;;;2.53;1.67;;;5.30;99.90;;;;;;5074492;28;20507;-43
2023/01/31 03:02:29;;;;;;;4.85;1.90;;;5.20;99.90;;;;;;5073698;28;20017;-44
2023/01/31 03:04:54;;;;;;;6.47;2.20;;;5.30;99.90;;;;;;5073700;28;20146;-43
2023/01/31 03:07:25;;;;;;;4.15;1.80;;;5.50;99.90;;;;;;5073368;28;20036;-35
2023/01/31 03:10:45;;;;;;;4.20;2.10;;;5.70;99.90;;;;;;5073487;28;20433;-35
2023/01/31 03:13:39;;;;;;;4.15;1.92;;;5.90;99.90;;;;;;5070955;28;20556;-43
2023/01/31 03:19:15;;;;;;;;;;;6.20;99.90;;;;;;5073852;28;20398;-40
2023/01/31 03:21:56;;;;;;;5.75;2.15;;;6.20;99.90;;;;;;5073294;28;19905;-34
2023/01/31 03:24:25;;;;;;;3.60;1.90;;;6.10;99.90;;;;;;5073286;28;20078;-36
2023/01/31 03:26:52;;;;;;;5.68;2.08;;;6.00;99.90;;;;;;5074369;28;20024;-39
2023/01/31 03:29:18;;;;;;;4.10;1.90;;;5.90;99.90;;;;;;5073342;28;20030;-42
2023/01/31 03:32:14;;;;;;;3.97;1.90;;;5.80;99.90;;;;;;5073195;28;20060;-32
2023/01/31 03:34:40;;;;;;;4.47;1.70;;;5.70;99.90;;;;;;5073043;28;20031;-43
2023/01/31 03:37:20;;;;;;;3.05;1.73;;;5.70;99.90;;;;;;5072692;28;20033;-33
2023/01/31 03:40:03;;;;;;;5.53;2.00;;;5.60;99.90;;;;;;5073006;28;20120;-43
2023/01/31 03:42:47;;;;;;;4.07;1.92;;;5.50;99.90;;;;;;5073685;28;20028;-43
2023/01/31 03:45:18;;;;;;;4.10;1.70;;;5.40;99.90;;;;;;5073009;28;20050;-39
2023/01/31 03:47:47;;;;;;;4.63;2.28;;;5.40;99.90;;;;;;5073654;28;20028;-43
2023/01/31 03:50:25;;;;;;;4.88;2.10;;;5.40;99.90;;;;;;5072742;28;20290;-41
2023/01/31 03:53:29;;;;;;;4.68;2.20;;;5.30;99.90;;;;;;5071657;28;20386;-34
2023/01/31 03:56:12;;;;;;;4.03;1.90;;;5.30;99.90;;;;;;5072461;28;20037;-43
2023/01/31 03:58:43;;;;;;;3.55;1.70;;;5.30;99.90;;;;;;5072444;28;20406;-33
2023/01/31 04:01:10;;;;;;;3.22;1.80;;;5.20;99.90;;;;;;5072350;28;20024;-43
2023/01/31 04:03:54;;;;;;;3.35;1.80;;;5.20;99.90;;;;;;5073009;28;20116;-34
2023/01/31 04:06:20;;;;;;;;;;;5.30;99.90;;;;;;5071556;28;20036;-42
2023/01/31 04:08:46;;;;;;;3.50;1.88;;;5.50;99.90;;;;;;5072398;28;20282;-34
2023/01/31 04:11:13;;;;;;;4.57;1.92;;;5.80;99.90;;;;;;5072381;28;20483;-33
2023/01/31 04:13:40;;;;;;;4.30;1.52;;;6.00;99.90;;;;;;5072600;28;20103;-33
2023/01/31 04:16:07;;;;;;;4.40;1.60;;;6.20;99.90;;;;;;5071928;28;20402;-40
2023/01/31 04:18:32;;;;;;;5.45;1.85;;;6.20;99.90;;;;;;5072122;28;20035;-41
2023/01/31 04:20:58;;;;;;;3.13;1.67;;;6.10;99.90;;;;;;5072349;28;20032;-39
2023/01/31 04:23:25;;;;;;;2.70;1.60;;;6.10;99.90;;;;;;5072207;28;20021;-43
2023/01/31 04:25:53;;;;;;;3.38;1.90;;;6.00;99.90;;;;;;5072030;28;20371;-40
2023/01/31 04:28:19;;;;;;;6.00;2.05;;;5.90;99.90;;;;;;5071978;28;20032;-38
2023/01/31 04:30:45;;;;;;;3.70;1.80;;;5.80;99.90;;;;;;5071931;28;20119;-42
2023/01/31 04:33:11;;;;;;;5.22;2.17;;;5.70;99.90;;;;;;5071850;28;20530;-39
2023/01/31 04:35:39;;;;;;;4.00;1.80;;;5.70;99.90;;;;;;5071768;28;20403;-43
2023/01/31 04:38:05;;;;;;;6.57;1.85;;;5.60;99.90;;;;;;5071690;28;20071;-43
2023/01/31 04:40:30;;;;;;;5.72;1.90;;;5.50;99.90;;;;;;5072078;28;20419;-36
2023/01/31 04:42:56;;;;;;;5.35;1.90;;;5.50;99.90;;;;;;5071747;28;20395;-36
2023/01/31 04:45:22;;;;;;;6.47;2.03;;;5.40;99.90;;;;;;5072517;28;20020;-39
2023/01/31 04:47:47;;;;;;;5.30;1.83;;;5.40;99.90;;;;;;5072520;28;20099;-39
2023/01/31 04:50:13;;;;;;;6.78;1.92;;;5.30;99.90;;;;;;5071582;28;20035;-43
2023/01/31 04:52:38;;;;;;;4.40;1.75;;;5.30;99.90;;;;;;5071608;28;20028;-36
2023/01/31 04:55:04;;;;;;;3.42;1.88;;;5.30;99.90;;;;;;5071558;28;20024;-43
2023/01/31 04:57:30;;;;;;;6.40;2.10;;;5.20;99.90;;;;;;5071169;28;20037;-42
2023/01/31 04:59:56;;;;;;;5.90;1.80;;;5.20;99.90;;;;;;5071402;28;20094;-35
2023/01/31 05:02:22;;;;;;;8.13;2.22;;;5.20;99.90;;;;;;5071405;28;20029;-35
2023/01/31 05:04:48;;;;;;;4.55;2.05;;;5.20;99.90;;;;;;5071466;28;20020;-32
2023/01/31 05:07:13;;;;;;;3.20;1.77;;;5.40;99.90;;;;;;5071172;28;20028;-36
2023/01/31 05:09:41;;;;;;;5.68;2.17;;;5.60;99.90;;;;;;5071435;28;20475;-33
2023/01/31 05:12:07;;;;;;;5.50;2.03;;;5.80;99.90;;;;;;5070901;28;20020;-43
2023/01/31 05:14:33;;;;;;;3.90;1.80;;;6.00;99.90;;;;;;5071079;28;20032;-43
2023/01/31 05:16:58;;;;;;;3.17;2.10;;;6.20;99.90;;;;;;5071465;28;20478;-40
2023/01/31 05:19:24;;;;;;;4.45;1.80;;;6.20;99.90;;;;;;5071915;28;20033;-43
2023/01/31 05:21:58;;;;;;;4.00;1.90;;;6.10;99.90;;;;;;5071297;28;20017;-43
2023/01/31 05:24:26;;;;;;;2.83;1.73;;;6.00;99.90;;;;;;5071405;28;20028;-34
2023/01/31 05:26:57;;;;;;;3.95;1.88;;;5.90;99.90;;;;;;5071014;28;20466;-43
2023/01/31 05:29:23;;;;;;;3.55;1.92;;;5.80;99.90;;;;;;5071623;28;20028;-36
2023/01/31 05:31:53;;;;;;;4.55;2.25;;;5.70;99.90;;;;;;5071234;28;20086;-40
2023/01/31 05:34:19;;;;;;;5.80;2.00;;;5.70;99.90;;;;;;5071524;28;20025;-38
2023/01/31 05:36:45;;;;;;;3.33;1.73;;;5.60;99.90;;;;;;5070958;28;20712;-43
2023/01/31 05:39:11;;;;;;;4.28;1.95;;;5.50;99.90;;;;;;5072037;28;20020;-43
2023/01/31 05:41:37;;;;;;;5.68;1.90;;;5.50;99.90;;;;;;5071126;28;20074;-43
2023/01/31 05:44:03;;;;;;;3.53;2.17;;;5.40;99.90;;;;;;5070995;28;20383;-43
2023/01/31 05:46:28;;;;;;;3.75;1.67;;;5.30;99.90;;;;;;5071086;28;20029;-42
2023/01/31 05:48:54;;;;;;;4.63;1.70;;;5.30;99.90;;;;;;5071112;28;20043;-42
2023/01/31 05:51:20;;;;;;;2.72;1.73;;;5.30;99.90;;;;;;5071729;28;20028;-40
2023/01/31 05:53:47;;;;;;;4.13;1.90;;;5.20;99.90;;;;;;5071004;28;20037;-41
2023/01/31 05:56:13;;;;;;;7.68;2.03;;;5.20;99.90;;;;;;5070609;28;20024;-35
2023/01/31 05:58:39;;;;;;;4.60;2.08;;;5.20;99.90;;;;;;5070666;28;20036;-37
2023/01/31 06:01:04;;;;;;;7.07;2.30;;;5.20;99.90;;;;;;5070943;28;20425;-40
2023/01/31 06:03:30;;;;;;;3.90;2.08;;;5.10;99.90;;;;;;5070762;28;20020;-43
2023/01/31 06:05:56;;;;;;;4.93;1.92;;;5.20;99.90;;;;;;5070681;28;20069;-43
2023/01/31 06:08:22;;;;;;;5.35;2.08;;;5.50;99.90;;;;;;5070738;28;20572;-42
2023/01/31 06:10:48;;;;;;;5.43;2.30;;;5.70;99.90;;;;;;5070682;28;20056;-33
2023/01/31 06:13:14;;;;;;;2.83;1.80;;;5.90;99.90;;;;;;5072001;28;20521;-38
2023/01/31 06:15:43;;;;;;;4.93;1.98;;;6.00;99.90;;;;;;5070565;28;20107;-43
2023/01/31 06:18:10;;;;;;;4.18;2.00;;;6.10;99.90;;;;;;5071446;28;20494;-43
2023/01/31 06:20:37;;;;;;;3.42;1.80;;;6.00;99.90;;;;;;5070739;28;20024;-34
2023/01/31 06:23:03;;;;;;;7.82;2.35;;;5.90;99.90;;;;;;5070990;28;20016;-37
2023/01/31 06:25:29;;;;;;;5.50;2.38;;;5.90;99.90;;;;;;5073704;28;20025;-39
2023/01/31 06:27:55;;;;;;;3.63;1.95;;;5.80;99.90;;;;;;5074116;28;20025;-40
2023/01/31 06:30:21;;;;;;;4.68;2.00;;;5.70;99.90;;;;;;5074218;28;20027;-40
2023/01/31 06:32:47;;;;;;;3.13;1.85;;;5.60;99.90;;;;;;5074326;28;20035;-43
2023/01/31 06:35:12;;;;;;;4.15;2.05;;;5.50;99.90;;;;;;5074222;28;20535;-42
2023/01/31 06:37:38;;;;;;;5.43;1.83;;;5.50;99.90;;;;;;5073853;28;20037;-36
2023/01/31 06:40:04;;;;;;;4.03;2.15;;;5.40;99.90;;;;;;5074148;28;20016;-41
2023/01/31 06:42:31;;;;;;;5.72;2.30;;;5.40;99.90;;;;;;5074153;28;20016;-35
2023/01/31 06:44:57;;;;;;;6.75;2.30;;;5.30;99.90;;;;;;5073953;28;20483;-43
2023/01/31 06:47:22;;;;;;;5.35;2.17;;;5.30;99.90;;;;;;5073752;28;20050;-38
2023/01/31 06:49:48;;;;;;;3.38;2.05;;;5.30;99.90;;;;;;5074522;28;20037;-42
2023/01/31 06:52:14;;;;;;;4.63;2.03;;;5.20;99.90;;;;;;5074489;28;20067;-37
2023/01/31 06:54:40;;;;;;;9.73;2.40;;;5.20;99.90;;;;;;5074218;28;20074;-43
2023/01/31 06:57:06;;;;;;;3.63;2.10;;;5.20;99.90;;;;;;5073434;28;20024;-36
2023/01/31 06:59:31;;;;;;;4.95;2.38;;;5.10;99.90;;;;;;5074004;28;20031;-41
2023/01/31 07:01:57;;;;;;;4.68;2.40;;;5.10;99.90;;;;;;5073730;28;20099;-42
2023/01/31 07:04:22;;;;;;;4.18;2.08;;;5.10;99.90;;;;;;5073645;28;20025;-37
2023/01/31 07:06:48;;;;;;;7.20;2.17;;;5.30;99.90;;;;;;5073393;28;20483;-43
2023/01/31 07:09:14;;;;;;;3.90;2.30;;;5.40;99.90;;;;;;5073496;28;20908;-33
2023/01/31 07:11:39;;;;;;;6.03;2.45;;;5.70;99.90;;;;;;5073505;28;20035;-38
2023/01/31 07:14:05;;;;;;;5.82;2.45;;;5.90;99.90;;;;;;5073564;28;20055;-37
2023/01/31 07:16:30;;;;;;;3.97;2.15;;;6.00;99.90;;;;;;5073178;28;20438;-34
2023/01/31 07:18:56;;;;;;;6.57;2.45;;;6.00;99.90;;;;;;5073538;28;20025;-37
2023/01/31 07:21:23;;;;;;;8.18;2.83;;;6.00;99.90;;;;;;5073522;28;20509;-43
2023/01/31 07:23:49;;;;;;;4.53;1.88;;;5.90;99.90;;;;;;5073350;28;20393;-44
2023/01/31 07:26:15;;;;;;;3.90;2.30;;;5.90;99.90;;;;;;5073441;28;20053;-33
2023/01/31 07:28:41;;;;;;;4.72;2.90;;;5.70;99.90;;;;;;5073219;28;20494;-34
2023/01/31 07:31:10;;;;;;;5.35;2.28;;;5.70;99.90;;;;;;5073615;28;20032;-43
2023/01/31 07:33:36;;;;;;;6.55;2.33;;;5.60;99.90;;;;;;5073158;28;20028;-37
2023/01/31 07:36:03;;;;;;;4.63;2.42;;;5.50;99.90;;;;;;5072010;28;20064;-37
2023/01/31 07:38:30;;;;;;;4.85;2.38;;;5.50;99.90;;;;;;5072978;28;20063;-42
2023/01/31 07:41:03;;;;;;;7.05;3.03;;;5.40;99.90;;;;;;5073704;28;20478;-38
2023/01/31 07:43:29;;;;;;;4.63;2.58;;;5.40;99.90;;;;;;5072983;28;20028;-42
2023/01/31 07:45:55;;;;;;;6.32;2.80;;;5.30;99.90;;;;;;5072736;28;20031;-35
2023/01/31 07:48:22;;;;;;;4.43;2.55;;;5.30;99.90;;;;;;5073656;28;20021;-42
2023/01/31 07:50:58;;;;;;;4.22;1.92;;;5.30;99.90;;;;;;5072656;28;20505;-37
2023/01/31 07:53:23;;;;;;;5.05;2.58;;;5.30;99.90;;;;;;5072780;28;20032;-38
2023/01/31 07:55:49;;;;;;;4.35;2.20;;;5.20;99.90;;;;;;5072390;28;20391;-34
2023/01/31 07:58:15;;;;;;;5.43;2.38;;;5.20;99.90;;;;;;5072475;28;20475;-38
2023/01/31 08:03:34;;;;;;;6.47;2.15;;;5.20;99.90;;;;;;5072774;28;20043;-35
2023/01/31 08:06:18;;;;;;;4.10;2.00;;;5.20;99.90;;;;;;5072376;28;20031;-39
2023/01/31 08:08:44;;;;;;;5.80;2.80;;;5.20;99.90;;;;;;5072448;28;20498;-42
2023/01/31 08:11:10;;;;;;;5.13;2.10;;;5.20;99.90;;;;;;5073161;28;20094;-35
2023/01/31 08:13:37;;;;;;;3.33;1.80;;;5.30;99.90;;;;;;5072400;28;20417;-41
2023/01/31 08:16:05;;;;;;;5.00;2.33;;;5.20;99.90;;;;;;5072751;28;20021;-37
2023/01/31 08:18:32;;;;;;;5.07;2.22;;;5.20;99.90;;;;;;5072200;28;20497;-38
2023/01/31 08:20:58;;;;;;;5.32;2.45;;;5.30;99.90;;;;;;5072153;28;20466;-40
2023/01/31 08:23:24;;;;;;;7.60;2.15;;;5.30;99.90;;;;;;5072155;28;20029;-38
2023/01/31 08:25:49;;;;;;;3.72;2.17;;;5.30;99.90;;;;;;5071935;28;20027;-43
2023/01/31 08:28:15;;;;;;;4.85;2.35;;;5.30;99.90;;;;;;5072304;28;20025;-43
2023/01/31 08:30:42;;;;;;;4.00;1.88;;;5.30;99.90;;;;;;5072631;28;20025;-43
2023/01/31 08:33:09;;;;;;;4.80;1.85;;;5.30;99.90;;;;;;5072008;28;20063;-33
2023/01/31 08:35:35;;;;;;;3.30;2.05;;;5.40;99.90;;;;;;5071833;28;20047;-36
2023/01/31 08:38:00;;;;;;;4.50;2.25;;;5.30;99.90;;;;;;5071635;28;20021;-43
2023/01/31 08:40:26;;;;;;;4.22;2.00;;;5.30;99.90;;;;;;5071759;28;20394;-40
2023/01/31 08:42:59;;;;;;;4.35;1.90;;;5.30;99.90;;;;;;5071794;28;20394;-43
2023/01/31 08:45:26;;;;;;;2.75;1.92;;;5.40;99.90;;;;;;5071670;28;20368;-42
2023/01/31 08:47:56;;;;;;;3.08;2.10;;;5.40;99.90;;;;;;5071491;28;20017;-43
2023/01/31 08:50:23;;;;;;;5.57;2.22;;;5.50;99.90;;;;;;5071722;28;20073;-36
2023/01/31 08:52:56;;;;;;;3.97;2.15;;;5.50;99.90;;;;;;5071595;28;20024;-33
2023/01/31 08:55:23;;;;;;;5.03;2.33;;;5.50;99.90;;;;;;5071570;28;20024;-35
2023/01/31 08:57:49;;;;;;;5.25;2.42;;;5.50;99.90;;;;;;5071117;28;20071;-34
2023/01/31 09:00:16;;;;;;;4.43;2.30;;;5.60;99.90;;;;;;5071501;28;20095;-40
2023/01/31 09:02:42;;;;;;;8.15;2.50;;;5.60;99.90;;;;;;5071473;28;20475;-33
2023/01/31 09:05:07;;;;;;;4.25;2.25;;;5.60;99.90;;;;;;5071511;28;20078;-41
2023/01/31 09:07:36;;;;;;;3.95;1.92;;;5.60;99.90;;;;;;5071671;28;20033;-37
2023/01/31 09:10:01;;;;;;;5.60;2.30;;;5.60;99.90;;;;;;5071404;28;20468;-37
2023/01/31 09:12:27;;;;;;;6.30;2.30;;;5.60;99.90;;;;;;5071836;28;20493;-32
2023/01/31 09:14:53;;;;;;;6.55;2.30;;;5.60;99.90;;;;;;5071408;28;20028;-43
2023/01/31 09:17:18;;;;;;;4.65;1.90;;;5.60;99.90;;;;;;5070990;28;20025;-43
2023/01/31 09:19:44;;;;;;;4.10;2.17;;;5.70;99.90;;;;;;5071237;28;20099;-43
2023/01/31 09:22:10;;;;;;;5.55;2.22;;;5.70;99.90;;;;;;5071459;28;20029;-41
2023/01/31 09:24:35;;;;;;;4.78;2.10;;;5.60;99.90;;;;;;5071982;28;20056;-43
2023/01/31 09:27:01;;;;;;;4.60;2.13;;;5.60;99.90;;;;;;5071150;28;20036;-36
2023/01/31 09:29:28;;;;;;;6.00;2.53;;;5.70;99.90;;;;;;5071667;28;20032;-42
2023/01/31 09:31:54;;;;;;;6.15;2.00;;;5.60;99.90;;;;;;5071317;28;20390;-40
2023/01/31 09:34:21;;;;;;;3.60;2.00;;;5.60;99.90;;;;;;5070944;28;20040;-33
2023/01/31 09:36:47;;;;;;;4.75;1.90;;;5.70;99.90;;;;;;5070833;28;20100;-39
2023/01/31 09:39:12;;;;;;;5.43;2.42;;;5.60;99.90;;;;;;5070972;28;20564;-38
2023/01/31 09:41:46;;;;;;;4.15;2.15;;;5.60;99.90;;;;;;5071152;28;20021;-43
2023/01/31 09:44:20;;;;;;;4.40;2.28;;;5.60;99.90;;;;;;5071178;28;20024;-36
2023/01/31 09:46:58;;;;;;;3.50;2.00;;;5.60;99.90;;;;;;5070756;28;20044;-34
2023/01/31 09:49:30;;;;;;;7.30;2.33;;;5.60;99.90;;;;;;5070940;28;20028;-36
2023/01/31 09:52:01;;;;;;;4.65;2.03;;;5.60;99.90;;;;;;5071169;28;20032;-35
2023/01/31 09:54:39;;;;;;;4.53;1.75;;;5.60;99.90;;;;;;5071167;28;20028;-38
2023/01/31 09:57:39;;;;;;;6.75;2.00;;;5.60;99.90;;;;;;5070711;28;20020;-34
2023/01/31 10:00:35;;;;;;;3.50;1.88;;;5.60;99.90;;;;;;5073303;28;20107;-43
2023/01/31 10:03:00;;;;;;;5.38;2.28;;;5.60;99.90;;;;;;5074950;28;20150;-43
2023/01/31 10:05:48;;;;;;;6.78;2.60;;;5.50;99.90;;;;;;5074667;28;20107;-37
2023/01/31 10:08:22;;;;;;;6.55;1.98;;;5.50;99.90;;;;;;5074687;28;20029;-35
2023/01/31 10:10:51;;;;;;;7.07;2.08;;;5.50;99.90;;;;;;5074658;28;20130;-36
2023/01/31 10:13:53;;;;;;;3.85;2.15;;;5.50;99.90;;;;;;5074636;28;20077;-43
2023/01/31 10:16:49;;;;;;;6.40;2.00;;;5.50;99.90;;;;;;5074170;28;20060;-43
2023/01/31 10:19:21;;;;;;;5.63;2.00;;;5.50;99.90;;;;;;5074456;28;20470;-43
2023/01/31 10:22:03;;;;;;;7.70;2.55;;;5.50;99.90;;;;;;5074660;28;20033;-43
2023/01/31 10:24:34;;;;;;;5.30;1.90;;;5.50;99.90;;;;;;5074513;28;20021;-41
2023/01/31 10:27:05;;;;;;;8.93;2.35;;;5.50;99.90;;;;;;5074651;28;20111;-43
2023/01/31 10:29:37;;;;;;;4.68;2.00;;;5.50;99.90;;;;;;5074357;28;20066;-42
2023/01/31 10:32:19;;;;;;;4.63;1.90;;;5.50;99.90;;;;;;5073074;28;20028;-38
2023/01/31 10:34:57;;;;;;;3.58;2.00;;;5.50;99.90;;;;;;5074342;28;20093;-36
2023/01/31 10:37:36;;;;;;;5.88;1.70;;;5.50;99.90;;;;;;5073889;28;20060;-37
2023/01/31 10:40:19;;;;;;;2.95;1.83;;;5.50;99.90;;;;;;5074165;28;20031;-43
2023/01/31 10:42:51;;;;;;;5.13;2.10;;;5.50;99.90;;;;;;5074186;28;20078;-37
2023/01/31 10:45:22;;;;;;;5.07;2.10;;;5.60;99.90;;;;;;5074101;28;20028;-39
2023/01/31 10:47:50;;;;;;;5.60;2.00;;;5.60;99.90;;;;;;5073726;28;20020;-37
2023/01/31 10:50:32;;;;;;;5.78;2.47;;;5.60;99.90;;;;;;5073908;28;20096;-43
2023/01/31 10:53:36;;;;;;;5.18;1.85;;;5.60;99.90;;;;;;5074012;28;20016;-42
2023/01/31 10:56:11;;;;;;;5.05;1.80;;;5.70;99.90;;;;;;5074049;28;20020;-43
2023/01/31 10:58:37;;;;;;;4.85;1.90;;;5.70;99.90;;;;;;5075343;28;20055;-41
2023/01/31 11:01:10;;;;;;;3.47;1.98;;;5.70;99.90;;;;;;5074751;28;20533;-33
2023/01/31 11:03:39;;;;;;;4.63;2.10;;;5.70;99.90;;;;;;5074291;28;20048;-43
2023/01/31 11:06:05;;;;;;;3.45;1.90;;;5.70;99.90;;;;;;5074542;28;20482;-39
2023/01/31 11:08:46;;;;;;;3.72;1.60;;;5.70;99.90;;;;;;5075443;28;20021;-41
2023/01/31 11:11:17;;;;;;;7.85;1.80;;;5.70;99.90;;;;;;5072445;28;20056;-43
2023/01/31 11:14:03;;;;;;;6.90;1.90;;;5.80;99.90;;;;;;5073602;28;20028;-43
2023/01/31 11:16:34;;;;;;;4.43;1.92;;;5.80;99.90;;;;;;5073311;28;20064;-35
2023/01/31 11:19:19;;;;;;;5.07;1.80;;;5.80;99.90;;;;;;5073821;28;20025;-39
2023/01/31 11:21:51;;;;;;;5.35;2.13;;;5.80;99.90;;;;;;5073493;28;20017;-43
2023/01/31 11:24:20;;;;;;;5.80;1.80;;;5.80;99.90;;;;;;5073671;28;20094;-42
2023/01/31 11:26:59;;;;;;;4.13;2.05;;;5.80;99.90;;;;;;5073110;28;20482;-44
2023/01/31 11:29:56;;;;;;;4.88;1.98;;;5.80;99.90;;;;;;5073151;28;20024;-40
2023/01/31 11:32:29;;;;;;;3.65;1.80;;;5.80;99.90;;;;;;5072783;28;20040;-43
2023/01/31 11:34:54;;;;;;;2.28;1.38;;;5.80;99.90;;;;;;5073037;28;20153;-43
2023/01/31 11:37:20;;;;;;;5.80;2.17;;;5.80;99.90;;;;;;5072764;28;20107;-43
2023/01/31 11:39:57;;;;;;;2.50;1.58;;;5.80;99.90;;;;;;5073020;28;20105;-42
2023/01/31 11:42:23;;;;;;;4.13;1.70;;;5.90;99.90;;;;;;5075131;28;20499;-43
2023/01/31 11:45:11;;;;;;;3.97;1.95;;;5.90;99.90;;;;;;5072995;28;20033;-34
2023/01/31 11:48:07;;;;;;;4.35;1.55;;;5.90;99.90;;;;;;5073577;28;20028;-37
2023/01/31 11:50:57;;;;;;;4.95;1.60;;;5.90;99.90;;;;;;5073576;28;20466;-43
2023/01/31 11:53:44;;;;;;;4.88;1.75;;;5.90;99.90;;;;;;5072846;28;20449;-43
2023/01/31 11:56:25;;;;;;;4.53;1.88;;;6.00;99.90;;;;;;5072372;28;20045;-40
2023/01/31 11:59:02;;;;;;;4.00;1.75;;;5.90;99.90;;;;;;5072503;28;20024;-43
2023/01/31 12:01:28;;;;;;;3.83;1.58;;;5.90;99.90;;;;;;5072903;28;20659;-43
2023/01/31 12:04:04;;;;;;;5.28;1.80;;;5.90;99.90;;;;;;5073686;28;20060;-35
2023/01/31 12:06:38;;;;;;;4.80;1.60;;;5.90;99.90;;;;;;5072161;28;20021;-34
2023/01/31 12:09:17;;;;;;;4.35;1.73;;;5.90;99.90;;;;;;5072325;28;20028;-44
2023/01/31 12:11:52;;;;;;;3.47;1.60;;;5.90;99.90;;;;;;5072462;28;20075;-35
2023/01/31 12:14:18;;;;;;;3.70;1.52;;;5.80;99.90;;;;;;5072420;28;20059;-38
2023/01/31 12:16:46;;;;;;;3.15;1.80;;;5.80;99.90;;;;;;5072277;28;20029;-34
2023/01/31 12:19:12;;;;;;;8.02;2.03;;;5.80;99.90;;;;;;5072079;28;20024;-43
2023/01/31 12:22:05;;;;;;;4.20;1.80;;;5.80;99.90;;;;;;5071912;28;20025;-43
2023/01/31 12:25:01;;;;;;;4.97;1.75;;;5.80;99.90;;;;;;5073272;28;20025;-42
2023/01/31 12:27:52;;;;;;;5.53;1.90;;;5.80;99.90;;;;;;5071771;28;20039;-39
2023/01/31 12:30:45;;;;;;;3.83;1.73;;;5.80;99.90;;;;;;5072797;28;20025;-35
2023/01/31 12:33:14;;;;;;;6.22;1.92;;;5.80;99.90;;;;;;5074001;28;20016;-43
2023/01/31 12:36:07;;;;;;;4.50;1.88;;;5.80;99.90;;;;;;5071933;28;20039;-38
2023/01/31 12:38:44;;;;;;;5.07;2.08;;;5.80;99.90;;;;;;5071952;28;20043;-33
2023/01/31 12:41:31;;;;;;;4.55;1.73;;;5.70;99.90;;;;;;5073339;28;20056;-42
2023/01/31 12:44:14;;;;;;;5.97;1.60;;;5.70;99.90;;;;;;5073812;28;20056;-34
2023/01/31 12:47:29;;;;;;;6.28;1.88;;;5.70;99.90;;;;;;5071965;28;20387;-37
2023/01/31 12:50:13;;;;;;;4.72;1.98;;;5.80;99.90;;;;;;5070698;28;20036;-43
2023/01/31 12:52:45;;;;;;;4.68;1.80;;;5.70;99.90;;;;;;5071780;28;20085;-35
2023/01/31 12:55:49;;;;;;;3.20;1.73;;;5.70;99.90;;;;;;5071666;28;20063;-35
2023/01/31 12:58:53;;;;;;;3.20;1.80;;;5.70;99.90;;;;;;5069262;28;20040;-36
2023/01/31 13:01:33;;;;;;;4.40;1.73;;;5.70;99.90;;;;;;5070394;28;20436;-40
2023/01/31 13:04:29;;;;;;;5.00;1.60;;;5.70;99.90;;;;;;5072014;28;20056;-42
2023/01/31 13:07:05;;;;;;;4.43;1.90;;;5.70;99.90;;;;;;5071682;28;20032;-37
2023/01/31 13:09:33;;;;;;;4.53;1.52;;;5.60;99.90;;;;;;5071669;28;20004;-41
2023/01/31 13:12:18;;;;;;;4.43;1.70;;;5.70;99.90;;;;;;5072397;28;20013;-37
2023/01/31 13:14:50;;;;;;;4.30;1.70;;;5.60;99.90;;;;;;5073189;28;20031;-42
2023/01/31 13:17:25;;;;;;;5.82;1.92;;;5.70;99.90;;;;;;5071218;28;20032;-43
2023/01/31 13:20:05;;;;;;;4.90;2.00;;;5.70;99.90;;;;;;5071272;28;20020;-35
2023/01/31 13:22:43;;;;;;;4.32;1.80;;;5.60;99.90;;;;;;5071369;28;20114;-38
2023/01/31 13:25:31;;;;;;;4.55;1.70;;;5.60;99.90;;;;;;5071284;28;20017;-33
2023/01/31 13:28:11;;;;;;;5.85;1.67;;;5.60;99.90;;;;;;5071203;28;20028;-40
2023/01/31 13:30:57;;;;;;;3.25;1.65;;;5.70;99.90;;;;;;5071138;28;20023;-41
2023/01/31 13:33:56;;;;;;;6.97;1.63;;;5.70;99.90;;;;;;5073637;28;20024;-34